Terminal Aerodrome Forecast
Issued by NWS

Home | Current Version | Previous Version | Text Only | Print | Product List | Glossary On
Versions: 1 2 3 4 5 6 7 8 9 10 11 12 13 14 15 16 17 18 19 20 21 22 23 24 25 26 27 28 29 30 31 32 33
708
FTUS44 KOUN 251134
TAFPNC
TAF
KPNC 251134Z 2512/2612 11015G21KT P6SM FEW006 OVC025
     FM251400 15010KT P6SM FEW007 OVC025
     FM251600 18012G16KT P6SM BKN035
     FM260400 16010G15KT P6SM BKN015=

USA.gov is the U.S. government's official web portal to all federal, state and local government web resources and services.